createdAt,value
2022-10-24T00:01:30.083Z,22.20
2022-10-24T00:04:01.950Z,22.27
2022-10-24T00:06:29.774Z,22.14
2022-10-24T00:08:57.222Z,22.13
2022-10-24T00:11:28.579Z,22.13
2022-10-24T00:13:57.802Z,22.16
2022-10-24T00:16:26.284Z,22.12
2022-10-24T00:18:54.762Z,22.10
2022-10-24T00:21:23.344Z,22.14
2022-10-24T00:23:50.969Z,22.16
2022-10-24T00:26:19.304Z,22.11
2022-10-24T00:28:47.249Z,22.07
2022-10-24T00:31:18.137Z,22.07
2022-10-24T00:33:46.847Z,22.03
2022-10-24T00:36:17.700Z,22.03
2022-10-24T00:38:45.692Z,22.07
2022-10-24T00:41:17.127Z,22.13
2022-10-24T00:43:48.279Z,22.08
2022-10-24T00:46:18.385Z,22.09
2022-10-24T00:48:52.948Z,22.00
2022-10-24T00:51:26.537Z,22.08
2022-10-24T00:54:06.962Z,22.03
2022-10-24T00:57:02.459Z,22.01
2022-10-24T00:59:31.346Z,21.99
2022-10-24T01:01:59.524Z,22.02
2022-10-24T01:04:27.080Z,21.93
2022-10-24T01:07:27.512Z,22.02
2022-10-24T01:10:04.082Z,21.95
2022-10-24T01:12:55.810Z,22.04
2022-10-24T01:15:38.608Z,21.97
2022-10-24T01:18:09.125Z,21.95
2022-10-24T01:21:08.322Z,21.84
2022-10-24T01:24:03.876Z,21.90
2022-10-24T01:26:56.716Z,21.91
2022-10-24T01:29:42.814Z,21.86
2022-10-24T01:32:27.917Z,21.74
2022-10-24T01:35:06.217Z,21.83
2022-10-24T01:37:49.253Z,21.94
2022-10-24T01:40:27.583Z,21.94
2022-10-24T01:43:00.837Z,21.86
2022-10-24T01:45:38.945Z,21.99
2022-10-24T01:48:10.795Z,22.04
2022-10-24T01:50:40.020Z,21.98
2022-10-24T01:53:10.116Z,22.01
2022-10-24T01:55:40.486Z,22.04
2022-10-24T01:58:09.828Z,21.96
2022-10-24T02:00:37.694Z,22.02
2022-10-24T02:03:17.993Z,22.05
2022-10-24T02:06:02.421Z,21.99
2022-10-24T02:08:38.947Z,22.02
2022-10-24T02:11:10.574Z,21.94
2022-10-24T02:14:19.779Z,22.02
2022-10-24T02:16:48.217Z,21.99
2022-10-24T02:19:17.051Z,22.00
2022-10-24T02:22:02.144Z,22.04
2022-10-24T02:24:47.453Z,22.03
2022-10-24T02:27:37.335Z,22.03
2022-10-24T02:30:14.659Z,21.97
2022-10-24T02:32:50.106Z,22.02
2022-10-24T02:35:27.534Z,22.07
2022-10-24T02:38:12.216Z,22.07
2022-10-24T02:40:42.519Z,22.00
2022-10-24T02:43:13.802Z,22.04
2022-10-24T02:45:41.566Z,22.00
2022-10-24T02:48:14.604Z,22.03
2022-10-24T02:50:44.749Z,21.99
2022-10-24T02:53:20.133Z,21.87
2022-10-24T02:55:48.388Z,21.89
2022-10-24T02:58:16.050Z,21.88
2022-10-24T03:00:44.766Z,21.79
2022-10-24T03:03:13.038Z,21.63
2022-10-24T03:05:41.296Z,21.62
2022-10-24T03:08:08.898Z,21.58
2022-10-24T03:10:37.658Z,21.60
2022-10-24T03:13:05.225Z,21.65
2022-10-24T03:15:34.109Z,21.66
2022-10-24T03:18:01.936Z,21.69
2022-10-24T03:20:29.550Z,21.67
2022-10-24T03:22:57.324Z,21.64
2022-10-24T03:25:25.420Z,21.62
2022-10-24T03:27:53.526Z,21.60
2022-10-24T03:30:20.862Z,21.47
2022-10-24T03:32:48.622Z,21.39
2022-10-24T03:35:18.175Z,21.40
2022-10-24T03:37:47.280Z,21.36
2022-10-24T03:40:15.037Z,21.32
2022-10-24T03:42:43.467Z,21.24
2022-10-24T03:45:11.901Z,21.26
2022-10-24T03:47:39.364Z,21.21
2022-10-24T03:50:08.152Z,21.24
2022-10-24T03:52:36.104Z,21.27
2022-10-24T03:55:06.511Z,21.35
2022-10-24T03:57:41.290Z,21.30
2022-10-24T04:00:09.922Z,21.24
2022-10-24T04:02:40.221Z,21.17
2022-10-24T04:05:10.996Z,21.22
2022-10-24T04:07:39.400Z,21.21
2022-10-24T04:10:08.023Z,21.13
2022-10-24T04:12:36.131Z,21.21
2022-10-24T04:15:05.466Z,21.33
2022-10-24T04:17:34.017Z,21.43
2022-10-24T04:20:02.392Z,21.50
2022-10-24T04:22:31.723Z,21.52
2022-10-24T04:25:00.549Z,21.49
2022-10-24T04:27:28.945Z,21.52
2022-10-24T04:29:57.033Z,21.57
2022-10-24T04:32:24.870Z,21.62
2022-10-24T04:34:52.995Z,21.54
2022-10-24T04:37:22.338Z,21.60
2022-10-24T04:39:50.200Z,21.48
2022-10-24T04:42:21.536Z,21.47
2022-10-24T04:44:49.074Z,21.51
2022-10-24T04:47:24.624Z,21.58
2022-10-24T04:49:52.218Z,21.61
2022-10-24T04:52:19.851Z,21.65
2022-10-24T04:54:50.079Z,21.66
2022-10-24T04:57:18.039Z,21.63
2022-10-24T04:59:45.765Z,21.68
2022-10-24T05:02:13.477Z,21.68
2022-10-24T05:04:41.988Z,21.62
2022-10-24T05:07:09.929Z,21.61
2022-10-24T05:09:37.714Z,21.65
2022-10-24T05:12:06.243Z,21.69
2022-10-24T05:14:33.971Z,21.66
2022-10-24T05:17:01.536Z,21.60
2022-10-24T05:19:28.978Z,21.72
2022-10-24T05:21:56.403Z,21.78
2022-10-24T05:24:29.090Z,21.83
2022-10-24T05:26:59.722Z,21.86
2022-10-24T05:29:30.004Z,21.89
2022-10-24T05:31:57.594Z,21.90
2022-10-24T05:34:28.226Z,21.92
2022-10-24T05:36:57.145Z,21.93
2022-10-24T05:39:25.132Z,21.86
2022-10-24T05:41:55.346Z,21.90
2022-10-24T05:44:24.127Z,21.90
2022-10-24T05:46:51.807Z,21.88
2022-10-24T05:49:19.441Z,21.87
2022-10-24T05:51:47.678Z,21.83
2022-10-24T05:54:15.502Z,21.80
2022-10-24T05:56:43.449Z,21.81
2022-10-24T05:59:11.650Z,21.81
2022-10-24T06:01:42.037Z,21.75
2022-10-24T06:04:14.086Z,21.77
2022-10-24T06:06:44.943Z,21.76
2022-10-24T06:09:13.450Z,21.71
2022-10-24T06:11:41.829Z,21.70
2022-10-24T06:14:10.853Z,21.70
2022-10-24T06:16:39.071Z,21.76
2022-10-24T06:19:06.727Z,21.77
2022-10-24T06:21:35.942Z,21.81
2022-10-24T06:24:03.889Z,21.83
2022-10-24T06:26:31.783Z,21.81
2022-10-24T06:28:59.566Z,21.86
2022-10-24T06:31:28.551Z,21.86
2022-10-24T06:33:56.098Z,21.90
2022-10-24T06:36:26.830Z,21.88
2022-10-24T06:38:58.115Z,21.86
2022-10-24T06:41:25.713Z,21.89
2022-10-24T06:43:56.815Z,21.91
2022-10-24T06:46:24.654Z,21.94
2022-10-24T06:48:56.012Z,21.96
2022-10-24T06:51:25.278Z,21.98
2022-10-24T06:53:55.358Z,22.02
2022-10-24T06:56:23.394Z,22.07
2022-10-24T06:58:51.162Z,22.07
2022-10-24T07:01:22.543Z,22.13
2022-10-24T07:03:51.282Z,22.14
2022-10-24T07:06:23.959Z,22.23
2022-10-24T07:08:54.548Z,22.24
2022-10-24T07:11:22.508Z,22.34
2022-10-24T07:13:50.276Z,22.38
2022-10-24T07:16:19.076Z,22.43
2022-10-24T07:18:52.353Z,22.50
2022-10-24T07:21:28.868Z,22.59
2022-10-24T07:23:57.424Z,22.66
2022-10-24T07:26:28.110Z,22.74
2022-10-24T07:31:32.772Z,22.90
2022-10-24T07:34:01.965Z,22.93
2022-10-24T07:36:31.379Z,22.88
2022-10-24T07:39:01.327Z,22.99
2022-10-24T07:41:31.742Z,23.11
2022-10-24T07:44:04.631Z,23.15
2022-10-24T07:46:33.068Z,23.24
2022-10-24T07:49:00.963Z,23.32
2022-10-24T07:51:30.258Z,23.40
2022-10-24T07:53:59.779Z,23.49
2022-10-24T07:56:27.837Z,23.50
2022-10-24T07:58:57.031Z,23.60
2022-10-24T08:01:27.617Z,23.67
2022-10-24T08:03:56.894Z,23.68
2022-10-24T08:06:29.974Z,23.74
2022-10-24T08:08:58.117Z,23.77
2022-10-24T08:11:27.425Z,23.90
2022-10-24T08:13:57.559Z,23.97
2022-10-24T08:16:26.637Z,24.06
2022-10-24T08:18:59.147Z,24.15
2022-10-24T08:21:27.754Z,24.21
2022-10-24T08:23:56.239Z,24.25
2022-10-24T08:26:26.401Z,24.32
2022-10-24T08:28:55.817Z,24.45
2022-10-24T08:31:25.707Z,24.51
2022-10-24T08:33:55.353Z,24.64
2022-10-24T08:36:32.399Z,24.67
2022-10-24T08:39:00.969Z,24.75
2022-10-24T08:41:41.837Z,24.77
2022-10-24T08:44:28.649Z,24.76
2022-10-24T08:47:00.367Z,24.76
2022-10-24T08:49:50.542Z,24.78
2022-10-24T08:52:38.153Z,24.78
2022-10-24T08:58:06.608Z,24.74
2022-10-24T09:00:46.822Z,24.76
2022-10-24T09:03:54.575Z,24.79
2022-10-24T09:06:27.940Z,24.83
2022-10-24T09:09:02.591Z,24.88
2022-10-24T09:11:48.949Z,24.97
2022-10-24T09:14:23.957Z,25.05
2022-10-24T09:17:20.509Z,25.09
2022-10-24T09:20:09.219Z,25.12
2022-10-24T09:22:39.427Z,25.18
2022-10-24T09:25:15.689Z,25.23
2022-10-24T09:27:44.638Z,25.31
2022-10-24T09:30:29.867Z,25.37
2022-10-24T09:33:17.944Z,25.41
2022-10-24T09:35:51.414Z,25.44
2022-10-24T09:38:32.048Z,25.44
2022-10-24T09:41:25.672Z,25.45
2022-10-24T09:43:58.257Z,25.46
2022-10-24T09:46:35.907Z,25.53
2022-10-24T09:49:23.949Z,25.54
2022-10-24T09:52:06.246Z,25.56
2022-10-24T09:54:37.476Z,25.60
2022-10-24T09:57:11.445Z,25.60
2022-10-24T09:59:51.049Z,25.66
2022-10-24T10:02:38.621Z,25.69
2022-10-24T10:05:09.395Z,25.70
2022-10-24T10:07:42.564Z,25.84
2022-10-24T10:10:19.587Z,25.93
2022-10-24T10:12:56.861Z,26.01
2022-10-24T10:15:33.344Z,26.11
2022-10-24T10:18:30.219Z,26.24
2022-10-24T10:21:08.189Z,26.30
2022-10-24T10:23:42.460Z,26.39
2022-10-24T10:26:15.866Z,26.43
2022-10-24T10:28:47.348Z,26.52
2022-10-24T10:31:20.550Z,26.57
2022-10-24T10:34:14.149Z,26.64
2022-10-24T10:37:16.182Z,26.70
2022-10-24T10:40:18.186Z,26.72
2022-10-24T10:43:32.474Z,26.76
2022-10-24T10:46:21.875Z,26.76
2022-10-24T10:49:02.657Z,26.90
2022-10-24T10:51:52.114Z,26.92
2022-10-24T10:54:31.040Z,27.07
2022-10-24T10:57:07.792Z,27.17
2022-10-24T11:00:11.993Z,27.32
2022-10-24T11:02:52.919Z,27.42
2022-10-24T11:05:42.378Z,27.43
2022-10-24T11:08:29.740Z,27.57
2022-10-24T11:11:03.623Z,27.59
2022-10-24T11:13:41.523Z,27.53
2022-10-24T11:16:21.038Z,27.48
2022-10-24T11:18:51.637Z,27.50
2022-10-24T11:21:21.907Z,27.57
2022-10-24T11:24:01.280Z,27.51
2022-10-24T11:26:40.917Z,27.55
2022-10-24T11:29:40.836Z,27.56
2022-10-24T11:32:40.615Z,27.58
2022-10-24T11:35:29.962Z,27.66
2022-10-24T11:38:14.110Z,27.70
2022-10-24T11:40:45.379Z,27.71
2022-10-24T11:43:24.419Z,27.74
2022-10-24T11:46:01.198Z,27.76
2022-10-24T11:48:41.469Z,27.88
2022-10-24T11:51:38.009Z,27.97
2022-10-24T11:54:14.351Z,28.02
2022-10-24T11:56:50.326Z,27.97
2022-10-24T11:59:24.603Z,28.08
2022-10-24T12:01:55.058Z,28.14
2022-10-24T12:04:40.635Z,28.25
2022-10-24T12:07:16.871Z,28.32
2022-10-24T12:10:04.783Z,28.27
2022-10-24T12:13:10.264Z,28.14
2022-10-24T12:16:05.238Z,28.02
2022-10-24T12:18:41.964Z,27.94
2022-10-24T12:21:25.506Z,27.91
2022-10-24T12:24:01.814Z,27.83
2022-10-24T12:26:35.883Z,27.82
2022-10-24T12:29:09.948Z,27.74
2022-10-24T12:31:39.125Z,27.86
2022-10-24T12:34:15.947Z,27.99
2022-10-24T12:37:12.872Z,28.09
2022-10-24T12:39:49.324Z,28.14
2022-10-24T12:42:26.025Z,28.19
2022-10-24T12:45:02.600Z,28.26
2022-10-24T12:47:34.718Z,28.20
2022-10-24T12:50:21.369Z,28.17
2022-10-24T12:52:57.630Z,28.12
2022-10-24T12:55:39.591Z,28.05
2022-10-24T12:58:30.291Z,28.08
2022-10-24T13:01:23.429Z,28.02
2022-10-24T13:03:50.807Z,28.03
2022-10-24T13:06:31.955Z,28.07
2022-10-24T13:09:50.475Z,28.06
2022-10-24T13:12:52.519Z,28.00
2022-10-24T13:15:40.200Z,28.00
2022-10-24T13:18:19.584Z,27.97
2022-10-24T13:20:52.411Z,27.98
2022-10-24T13:23:26.971Z,28.00
2022-10-24T13:26:00.268Z,27.97
2022-10-24T13:28:30.746Z,27.97
2022-10-24T13:31:18.457Z,27.94
2022-10-24T13:33:48.269Z,27.90
2022-10-24T13:36:24.266Z,27.79
2022-10-24T13:39:03.831Z,27.82
2022-10-24T13:41:46.416Z,27.81
2022-10-24T13:44:26.047Z,27.84
2022-10-24T13:47:04.211Z,27.83
2022-10-24T13:49:53.526Z,27.86
2022-10-24T13:52:49.102Z,27.89
2022-10-24T13:55:31.246Z,27.90
2022-10-24T13:58:09.355Z,27.82
2022-10-24T14:00:43.310Z,27.70
2022-10-24T14:03:20.446Z,27.80
2022-10-24T14:05:53.999Z,27.79
2022-10-24T14:08:37.801Z,27.76
2022-10-24T14:11:19.740Z,27.79
2022-10-24T14:13:53.556Z,27.72
2022-10-24T14:16:39.204Z,27.64
2022-10-24T14:19:28.373Z,27.68
2022-10-24T14:21:58.876Z,27.67
2022-10-24T14:24:26.508Z,27.67
2022-10-24T14:26:57.309Z,27.70
2022-10-24T14:29:32.888Z,27.67
2022-10-24T14:32:13.885Z,27.72
2022-10-24T14:34:43.187Z,27.67
2022-10-24T14:37:25.532Z,27.64
2022-10-24T14:39:54.387Z,27.66
2022-10-24T14:42:22.282Z,27.66
2022-10-24T14:44:54.832Z,27.63
2022-10-24T14:47:29.907Z,27.59
2022-10-24T14:50:00.717Z,27.56
2022-10-24T14:52:48.252Z,27.57
2022-10-24T14:55:25.844Z,27.53
2022-10-24T14:57:55.037Z,27.56
2022-10-24T15:00:25.151Z,27.58
2022-10-24T15:02:56.906Z,27.62
2022-10-24T15:05:24.103Z,27.59
2022-10-24T15:08:21.527Z,27.55
2022-10-24T15:10:50.724Z,27.57
2022-10-24T15:13:22.315Z,27.61
2022-10-24T15:15:49.758Z,27.62
2022-10-24T15:18:25.178Z,27.61
2022-10-24T15:21:01.767Z,27.60
2022-10-24T15:23:32.493Z,27.58
2022-10-24T15:26:03.052Z,27.63
2022-10-24T15:28:59.285Z,27.65
2022-10-24T15:31:28.470Z,27.62
2022-10-24T15:33:56.505Z,27.67
2022-10-24T15:36:30.644Z,27.59
2022-10-24T15:39:20.730Z,27.57
2022-10-24T15:41:48.751Z,27.57
2022-10-24T15:44:26.879Z,27.50
2022-10-24T15:46:55.230Z,27.51
2022-10-24T15:49:23.330Z,27.47
2022-10-24T15:51:52.072Z,27.44
2022-10-24T15:54:27.593Z,27.39
2022-10-24T15:56:55.968Z,27.39
2022-10-24T15:59:27.081Z,27.41
2022-10-24T16:01:58.423Z,27.37
2022-10-24T16:04:26.242Z,27.36
2022-10-24T16:06:54.793Z,27.31
2022-10-24T16:09:28.072Z,27.29
2022-10-24T16:12:06.281Z,27.25
2022-10-24T16:14:34.516Z,27.18
2022-10-24T16:17:02.563Z,27.22
2022-10-24T16:19:31.141Z,27.21
2022-10-24T16:22:00.993Z,27.14
2022-10-24T16:24:32.862Z,27.12
2022-10-24T16:27:00.285Z,27.11
2022-10-24T16:29:27.614Z,27.05
2022-10-24T16:31:55.059Z,27.02
2022-10-24T16:34:23.909Z,26.98
2022-10-24T16:37:01.475Z,26.94
2022-10-24T16:39:34.284Z,26.91
2022-10-24T16:42:04.913Z,26.82
2022-10-24T16:47:32.660Z,26.73
2022-10-24T16:50:00.830Z,26.73
2022-10-24T16:52:28.770Z,26.62
2022-10-24T16:54:56.334Z,26.62
2022-10-24T16:59:52.362Z,26.57
2022-10-24T17:02:19.993Z,26.57
2022-10-24T17:04:47.391Z,26.53
2022-10-24T17:07:15.533Z,26.50
2022-10-24T17:09:43.209Z,26.49
2022-10-24T17:12:14.959Z,26.46
2022-10-24T17:14:45.382Z,26.36
2022-10-24T17:17:13.695Z,26.37
2022-10-24T17:19:48.713Z,26.37
2022-10-24T17:22:16.367Z,26.29
2022-10-24T17:24:44.547Z,26.29
2022-10-24T17:27:13.953Z,26.27
2022-10-24T17:29:45.460Z,26.19
2022-10-24T17:32:14.281Z,26.17
2022-10-24T17:34:44.636Z,26.19
2022-10-24T17:37:55.197Z,26.18
2022-10-24T17:40:28.672Z,26.11
2022-10-24T17:42:58.048Z,26.13
2022-10-24T17:45:26.607Z,26.10
2022-10-24T17:47:54.081Z,26.10
2022-10-24T17:50:21.792Z,26.08
2022-10-24T17:52:51.809Z,26.07
2022-10-24T17:55:45.558Z,26.04
2022-10-24T17:58:18.978Z,26.02
2022-10-24T18:00:47.219Z,25.96
2022-10-24T18:03:15.434Z,25.95
2022-10-24T18:05:42.853Z,25.92
2022-10-24T18:08:12.364Z,25.92
2022-10-24T18:10:41.989Z,25.87
2022-10-24T18:13:10.294Z,25.83
2022-10-24T18:15:39.131Z,25.79
2022-10-24T18:18:07.851Z,25.75
2022-10-24T18:20:36.137Z,25.74
2022-10-24T18:23:06.458Z,25.73
2022-10-24T18:25:33.925Z,25.65
2022-10-24T18:28:01.709Z,25.66
2022-10-24T18:30:32.875Z,25.62
2022-10-24T18:33:00.739Z,25.63
2022-10-24T18:35:33.760Z,25.59
2022-10-24T18:38:02.501Z,25.56
2022-10-24T18:40:33.254Z,25.56
2022-10-24T18:43:05.756Z,25.56
2022-10-24T18:45:34.963Z,25.52
2022-10-24T18:48:03.993Z,25.48
2022-10-24T18:50:41.027Z,25.47
2022-10-24T18:53:24.128Z,25.44
2022-10-24T18:55:55.069Z,25.42
2022-10-24T18:58:22.984Z,25.39
2022-10-24T19:00:56.350Z,25.36
2022-10-24T19:03:40.525Z,25.31
2022-10-24T19:06:29.127Z,25.25
2022-10-24T19:08:58.965Z,25.19
2022-10-24T19:11:27.273Z,25.20
2022-10-24T19:13:58.911Z,25.18
2022-10-24T19:16:30.056Z,25.16
2022-10-24T19:19:02.932Z,25.09
2022-10-24T19:21:30.567Z,25.11
2022-10-24T19:23:58.133Z,25.13
2022-10-24T19:26:25.778Z,25.12
2022-10-24T19:28:54.764Z,25.11
2022-10-24T19:31:23.036Z,25.09
2022-10-24T19:33:54.476Z,25.03
2022-10-24T19:36:22.011Z,24.97
2022-10-24T19:38:56.168Z,25.01
2022-10-24T19:41:24.564Z,24.98
2022-10-24T19:43:52.354Z,24.98
2022-10-24T19:46:20.584Z,24.95
2022-10-24T19:48:49.682Z,24.96
2022-10-24T19:51:18.999Z,24.93
2022-10-24T19:53:47.892Z,24.93
2022-10-24T19:56:23.950Z,24.94
2022-10-24T19:58:54.486Z,24.93
2022-10-24T20:01:27.056Z,24.91
2022-10-24T20:03:58.187Z,24.91
2022-10-24T20:06:29.245Z,24.88
2022-10-24T20:08:57.595Z,24.87
2022-10-24T20:11:26.974Z,24.86
2022-10-24T20:13:57.279Z,24.86
2022-10-24T20:16:26.723Z,24.85
2022-10-24T20:18:58.193Z,24.84
2022-10-24T20:21:31.884Z,24.77
2022-10-24T20:24:02.752Z,24.77
2022-10-24T20:26:32.228Z,24.76
2022-10-24T20:29:00.951Z,24.73
2022-10-24T20:31:36.800Z,24.71
2022-10-24T20:34:10.580Z,24.70
2022-10-24T20:36:45.701Z,24.65
2022-10-24T20:39:16.895Z,24.62
2022-10-24T20:41:47.196Z,24.60
2022-10-24T20:44:17.308Z,24.55
2022-10-24T20:46:47.465Z,24.45
2022-10-24T20:49:15.423Z,24.46
2022-10-24T20:51:46.936Z,24.44
2022-10-24T20:54:29.461Z,24.46
2022-10-24T20:57:01.601Z,24.41
2022-10-24T20:59:42.047Z,24.40
2022-10-24T21:02:15.192Z,24.36
2022-10-24T21:04:43.523Z,24.36
2022-10-24T21:07:19.875Z,24.36
2022-10-24T21:09:50.407Z,24.35
2022-10-24T21:12:20.205Z,24.34
2022-10-24T21:14:48.542Z,24.33
2022-10-24T21:17:16.563Z,24.33
2022-10-24T21:19:44.372Z,24.32
2022-10-24T21:22:12.361Z,24.30
2022-10-24T21:24:40.005Z,24.28
2022-10-24T21:27:08.057Z,24.24
2022-10-24T21:29:36.634Z,24.23
2022-10-24T21:32:04.210Z,24.20
2022-10-24T21:34:34.295Z,24.19
2022-10-24T21:37:03.452Z,24.10
2022-10-24T21:39:31.388Z,24.01
2022-10-24T21:41:58.857Z,23.97
2022-10-24T21:44:27.219Z,23.99
2022-10-24T21:46:54.971Z,23.95
2022-10-24T21:52:29.255Z,23.91
2022-10-24T21:54:57.362Z,23.86
2022-10-24T21:57:24.596Z,23.82
2022-10-24T21:59:51.959Z,23.73
2022-10-24T22:02:19.733Z,23.68
2022-10-24T22:04:47.633Z,23.57
2022-10-24T22:07:15.113Z,23.52
2022-10-24T22:09:42.565Z,23.50
2022-10-24T22:12:09.966Z,23.51
2022-10-24T22:14:37.422Z,23.51
2022-10-24T22:17:04.918Z,23.46
2022-10-24T22:19:32.272Z,23.46
2022-10-24T22:22:00.029Z,23.49
2022-10-24T22:24:27.647Z,23.54
2022-10-24T22:26:55.054Z,23.61
2022-10-24T22:29:24.829Z,23.62
2022-10-24T22:31:53.608Z,23.67
2022-10-24T22:34:26.398Z,23.66
2022-10-24T22:37:20.001Z,23.70
2022-10-24T22:39:48.303Z,23.69
2022-10-24T22:42:19.365Z,23.67
2022-10-24T22:44:48.679Z,23.62
2022-10-24T22:47:39.283Z,23.66
2022-10-24T22:50:06.949Z,23.65
2022-10-24T22:52:40.847Z,23.63
2022-10-24T22:55:53.270Z,23.61
2022-10-24T22:58:21.423Z,23.60
2022-10-24T23:00:55.087Z,23.45
2022-10-24T23:03:43.194Z,23.50
2022-10-24T23:06:24.502Z,23.29
2022-10-24T23:08:52.106Z,23.30
2022-10-24T23:11:20.342Z,23.16
2022-10-24T23:13:48.704Z,23.12
2022-10-24T23:16:42.937Z,23.04
2022-10-24T23:19:25.275Z,23.07
2022-10-24T23:22:12.735Z,23.07
2022-10-24T23:24:41.588Z,23.10
2022-10-24T23:27:14.629Z,23.02
2022-10-24T23:29:46.938Z,23.03
2022-10-24T23:32:28.117Z,22.88
2022-10-24T23:34:56.593Z,22.86
2022-10-24T23:37:37.572Z,22.86
2022-10-24T23:40:20.388Z,22.73
2022-10-24T23:42:50.094Z,22.60
2022-10-24T23:45:23.740Z,22.65
2022-10-24T23:48:23.973Z,22.67
2022-10-24T23:51:06.436Z,22.55
2022-10-24T23:53:52.495Z,22.55
2022-10-24T23:56:26.242Z,22.57
2022-10-24T23:59:02.980Z,22.51
